<?xml version="1.0" encoding="utf-8"?>
<gpx xmlns:xsi="http://www.w3.org/2001/XMLSchema-instance" xmlns:xsd="http://www.w3.org/2001/XMLSchema" version="1.1" creator="Shapelink.com" xmlns="http://www.topografix.com/GPX/1/1" xmlns:gpxtpx="http://www.garmin.com/xmlschemas/TrackPointExtension/v1">
  <metadata>
    <name>Övrigt 2.54 km, 2019-07-08</name>
    <desc></desc>
    <author><name>Marian Moron</name></author> 
    <time>2019-07-08T18:38:25Z</time>
  </metadata>
  <trk>
    <name>Övrigt 2.54 km, 2019-07-08</name>
    <trkseg>
      <trkpt lat="51.228709823174" lon="4.468265245319">
        <ele>10.8</ele>
        <time>2019-07-08T18:38:25Z</time>
      </trkpt>
      <trkpt lat="51.228769586121" lon="4.468244793483">
        <ele>11.6</ele>
        <time>2019-07-08T18:38:32Z</time>
      </trkpt>
      <trkpt lat="51.229015930162" lon="4.468148569271">
        <ele>13.2</ele>
        <time>2019-07-08T18:38:56Z</time>
      </trkpt>
      <trkpt lat="51.229287168446" lon="4.467693180644">
        <ele>12.8</ele>
        <time>2019-07-08T18:39:37Z</time>
      </trkpt>
      <trkpt lat="51.229635939305" lon="4.467813544728">
        <ele>12</ele>
        <time>2019-07-08T18:40:08Z</time>
      </trkpt>
      <trkpt lat="51.229716070269" lon="4.467780771499">
        <ele>11.4</ele>
        <time>2019-07-08T18:40:16Z</time>
      </trkpt>
      <trkpt lat="51.229985632173" lon="4.467692258635">
        <ele>6.4</ele>
        <time>2019-07-08T18:40:49Z</time>
      </trkpt>
      <trkpt lat="51.230437081307" lon="4.46756527285">
        <ele>5.4</ele>
        <time>2019-07-08T18:41:31Z</time>
      </trkpt>
      <trkpt lat="51.230875370858" lon="4.467427055319">
        <ele>1.8</ele>
        <time>2019-07-08T18:42:07Z</time>
      </trkpt>
      <trkpt lat="51.230987939775" lon="4.46744205892">
        <ele>1.8</ele>
        <time>2019-07-08T18:42:17Z</time>
      </trkpt>
      <trkpt lat="51.231432767208" lon="4.467325718148">
        <ele>0</ele>
        <time>2019-07-08T18:42:52Z</time>
      </trkpt>
      <trkpt lat="51.231773826719" lon="4.46738003286">
        <ele>1.6</ele>
        <time>2019-07-08T18:43:19Z</time>
      </trkpt>
      <trkpt lat="51.23178631575" lon="4.467408279863">
        <ele>1.8</ele>
        <time>2019-07-08T18:43:21Z</time>
      </trkpt>
      <trkpt lat="51.231783884999" lon="4.46751162869">
        <ele>1.4</ele>
        <time>2019-07-08T18:43:27Z</time>
      </trkpt>
      <trkpt lat="51.231817999332" lon="4.467694689386">
        <ele>0</ele>
        <time>2019-07-08T18:43:35Z</time>
      </trkpt>
      <trkpt lat="51.231630496229" lon="4.468172541505">
        <ele>0.6</ele>
        <time>2019-07-08T18:44:09Z</time>
      </trkpt>
      <trkpt lat="51.231526309212" lon="4.468354261097">
        <ele>0.6</ele>
        <time>2019-07-08T18:44:22Z</time>
      </trkpt>
      <trkpt lat="51.231259178059" lon="4.468931690188">
        <ele>2.2</ele>
        <time>2019-07-08T18:45:01Z</time>
      </trkpt>
      <trkpt lat="51.231242078983" lon="4.468979634656">
        <ele>2.6</ele>
        <time>2019-07-08T18:45:04Z</time>
      </trkpt>
      <trkpt lat="51.230902947309" lon="4.469307786041">
        <ele>4.4</ele>
        <time>2019-07-08T18:45:34Z</time>
      </trkpt>
      <trkpt lat="51.230640677658" lon="4.469485817597">
        <ele>5.4</ele>
        <time>2019-07-08T18:45:58Z</time>
      </trkpt>
      <trkpt lat="51.230223426676" lon="4.469772730034">
        <ele>3.2</ele>
        <time>2019-07-08T18:46:37Z</time>
      </trkpt>
      <trkpt lat="51.229806008056" lon="4.4700505062">
        <ele>2.2</ele>
        <time>2019-07-08T18:47:14Z</time>
      </trkpt>
      <trkpt lat="51.229366964134" lon="4.470182856401">
        <ele>1.4</ele>
        <time>2019-07-08T18:47:54Z</time>
      </trkpt>
      <trkpt lat="51.22891886776" lon="4.470167266067">
        <ele>2.8</ele>
        <time>2019-07-08T18:48:34Z</time>
      </trkpt>
      <trkpt lat="51.228827421231" lon="4.470190064835">
        <ele>1.8</ele>
        <time>2019-07-08T18:48:44Z</time>
      </trkpt>
      <trkpt lat="51.228740668566" lon="4.470173384854">
        <ele>3.8</ele>
        <time>2019-07-08T18:48:54Z</time>
      </trkpt>
      <trkpt lat="51.228729855915" lon="4.470214875259">
        <ele>4</ele>
        <time>2019-07-08T18:49:48Z</time>
      </trkpt>
      <trkpt lat="51.2287227313" lon="4.470235662371">
        <ele>4</ele>
        <time>2019-07-08T18:49:50Z</time>
      </trkpt>
      <trkpt lat="51.228554506567" lon="4.470331467488">
        <ele>4.2</ele>
        <time>2019-07-08T18:50:15Z</time>
      </trkpt>
      <trkpt lat="51.228495665629" lon="4.470330126384">
        <ele>4</ele>
        <time>2019-07-08T18:50:20Z</time>
      </trkpt>
      <trkpt lat="51.228428610429" lon="4.470326103072">
        <ele>4.4</ele>
        <time>2019-07-08T18:50:27Z</time>
      </trkpt>
      <trkpt lat="51.228410673163" lon="4.47033884356">
        <ele>4.6</ele>
        <time>2019-07-08T18:50:29Z</time>
      </trkpt>
      <trkpt lat="51.228390053689" lon="4.470367174382">
        <ele>4.4</ele>
        <time>2019-07-08T18:50:32Z</time>
      </trkpt>
      <trkpt lat="51.228144631657" lon="4.470668922782">
        <ele>5.2</ele>
        <time>2019-07-08T18:50:59Z</time>
      </trkpt>
      <trkpt lat="51.22793399451" lon="4.470859611007">
        <ele>6.4</ele>
        <time>2019-07-08T18:51:21Z</time>
      </trkpt>
      <trkpt lat="51.227856713392" lon="4.470830693452">
        <ele>7.6</ele>
        <time>2019-07-08T18:51:27Z</time>
      </trkpt>
      <trkpt lat="51.22771606511" lon="4.470753412334">
        <ele>8.4</ele>
        <time>2019-07-08T18:51:41Z</time>
      </trkpt>
      <trkpt lat="51.227605675487" lon="4.470869250192">
        <ele>5.8</ele>
        <time>2019-07-08T18:51:54Z</time>
      </trkpt>
      <trkpt lat="51.227406102448" lon="4.471129592006">
        <ele>10.2</ele>
        <time>2019-07-08T18:52:19Z</time>
      </trkpt>
      <trkpt lat="51.227174510551" lon="4.471185331641">
        <ele>12.2</ele>
        <time>2019-07-08T18:52:39Z</time>
      </trkpt>
      <trkpt lat="51.226988097095" lon="4.470514947279">
        <ele>3.8</ele>
        <time>2019-07-08T18:53:15Z</time>
      </trkpt>
      <trkpt lat="51.226970411286" lon="4.470387793856">
        <ele>3.4</ele>
        <time>2019-07-08T18:53:21Z</time>
      </trkpt>
      <trkpt lat="51.226887514295" lon="4.469677595469">
        <ele>5.6</ele>
        <time>2019-07-08T18:53:57Z</time>
      </trkpt>
      <trkpt lat="51.226887430476" lon="4.469306109661">
        <ele>7.2</ele>
        <time>2019-07-08T18:54:16Z</time>
      </trkpt>
      <trkpt lat="51.22701366189" lon="4.469337541786">
        <ele>4.4</ele>
        <time>2019-07-08T18:54:27Z</time>
      </trkpt>
      <trkpt lat="51.227467709413" lon="4.469237545719">
        <ele>1.2</ele>
        <time>2019-07-08T18:55:05Z</time>
      </trkpt>
      <trkpt lat="51.227797285721" lon="4.46920477249">
        <ele>0</ele>
        <time>2019-07-08T18:55:31Z</time>
      </trkpt>
      <trkpt lat="51.227821341774" lon="4.468652070004">
        <ele>0</ele>
        <time>2019-07-08T18:56:05Z</time>
      </trkpt>
      <trkpt lat="51.227689326849" lon="4.468023092228">
        <ele>2.8</ele>
        <time>2019-07-08T18:56:38Z</time>
      </trkpt>
      <trkpt lat="51.22763559887" lon="4.467569966714">
        <ele>13.6</ele>
        <time>2019-07-08T18:57:03Z</time>
      </trkpt>
      <trkpt lat="51.227411047769" lon="4.466940150748">
        <ele>5.4</ele>
        <time>2019-07-08T18:57:39Z</time>
      </trkpt>
      <trkpt lat="51.22741012576" lon="4.466916681428">
        <ele>6</ele>
        <time>2019-07-08T18:57:40Z</time>
      </trkpt>
      <trkpt lat="51.227441557885" lon="4.466823307062">
        <ele>9.4</ele>
        <time>2019-07-08T18:57:45Z</time>
      </trkpt>
      <trkpt lat="51.227571980249" lon="4.466832527152">
        <ele>9.8</ele>
        <time>2019-07-08T18:57:54Z</time>
      </trkpt>
      <trkpt lat="51.227602741822" lon="4.466897905972">
        <ele>10.2</ele>
        <time>2019-07-08T18:57:59Z</time>
      </trkpt>
      <trkpt lat="51.227618080699" lon="4.466950209028">
        <ele>11.8</ele>
        <time>2019-07-08T18:58:02Z</time>
      </trkpt>
      <trkpt lat="51.227687147555" lon="4.467077110994">
        <ele>12</ele>
        <time>2019-07-08T18:58:12Z</time>
      </trkpt>
      <trkpt lat="51.227723357363" lon="4.467047019973">
        <ele>11.2</ele>
        <time>2019-07-08T18:58:16Z</time>
      </trkpt>
      <trkpt lat="51.227719669327" lon="4.467018018599">
        <ele>10.6</ele>
        <time>2019-07-08T18:58:18Z</time>
      </trkpt>
      <trkpt lat="51.227823521068" lon="4.466559025755">
        <ele>6.6</ele>
        <time>2019-07-08T18:58:40Z</time>
      </trkpt>
      <trkpt lat="51.227828717846" lon="4.46649909517">
        <ele>5.8</ele>
        <time>2019-07-08T18:58:43Z</time>
      </trkpt>
      <trkpt lat="51.227864843835" lon="4.466223833574">
        <ele>5.4</ele>
        <time>2019-07-08T18:58:59Z</time>
      </trkpt>
      <trkpt lat="51.2278761594" lon="4.466061057076">
        <ele>4</ele>
        <time>2019-07-08T18:59:08Z</time>
      </trkpt>
      <trkpt lat="51.227916811615" lon="4.466087376242">
        <ele>1.8</ele>
        <time>2019-07-08T18:59:15Z</time>
      </trkpt>
      <trkpt lat="51.228024099935" lon="4.466175134735">
        <ele>2.4</ele>
        <time>2019-07-08T18:59:31Z</time>
      </trkpt>
      <trkpt lat="51.228106577831" lon="4.466216457502">
        <ele>8.6</ele>
        <time>2019-07-08T18:59:42Z</time>
      </trkpt>
      <trkpt lat="51.228095932818" lon="4.466234059492">
        <ele>8.6</ele>
        <time>2019-07-08T18:59:44Z</time>
      </trkpt>
      <trkpt lat="51.22799602057" lon="4.46680251995">
        <ele>4.6</ele>
        <time>2019-07-08T19:00:21Z</time>
      </trkpt>
      <trkpt lat="51.228063327227" lon="4.466870245702">
        <ele>6.2</ele>
        <time>2019-07-08T19:00:29Z</time>
      </trkpt>
      <trkpt lat="51.228303301024" lon="4.467055485692">
        <ele>7</ele>
        <time>2019-07-08T19:00:53Z</time>
      </trkpt>
      <trkpt lat="51.228475297612" lon="4.467331669297">
        <ele>12.4</ele>
        <time>2019-07-08T19:01:15Z</time>
      </trkpt>
      <trkpt lat="51.228505472452" lon="4.467380954869">
        <ele>14.6</ele>
        <time>2019-07-08T19:01:19Z</time>
      </trkpt>
      <trkpt lat="51.228713930305" lon="4.467553957285">
        <ele>21.2</ele>
        <time>2019-07-08T19:01:43Z</time>
      </trkpt>
      <trkpt lat="51.228779979677" lon="4.467550101611">
        <ele>19.2</ele>
        <time>2019-07-08T19:01:49Z</time>
      </trkpt>
      <trkpt lat="51.228842760108" lon="4.467501067496">
        <ele>15.2</ele>
        <time>2019-07-08T19:01:54Z</time>
      </trkpt>
      <trkpt lat="51.228991119738" lon="4.467527386662">
        <ele>9</ele>
        <time>2019-07-08T19:02:06Z</time>
      </trkpt>
      <trkpt lat="51.229121374464" lon="4.467575247311">
        <ele>3</ele>
        <time>2019-07-08T19:02:33Z</time>
      </trkpt>
      <trkpt lat="51.229129001993" lon="4.467717991068">
        <ele>1.4</ele>
        <time>2019-07-08T19:02:41Z</time>
      </trkpt>
      <trkpt lat="51.229077872403" lon="4.4677538656">
        <ele>0.6</ele>
        <time>2019-07-08T19:02:47Z</time>
      </trkpt>
      <trkpt lat="51.229020204931" lon="4.468193328617">
        <ele>2</ele>
        <time>2019-07-08T19:03:12Z</time>
      </trkpt>
      <trkpt lat="51.228960609622" lon="4.468302628593">
        <ele>0.8</ele>
        <time>2019-07-08T19:03:23Z</time>
      </trkpt>
      <trkpt lat="51.228879305192" lon="4.468437241907">
        <ele>2.2</ele>
        <time>2019-07-08T19:03:33Z</time>
      </trkpt>
      <trkpt lat="51.228846531963" lon="4.468433805328">
        <ele>0.6</ele>
        <time>2019-07-08T19:03:37Z</time>
      </trkpt>
      <trkpt lat="51.228832366552" lon="4.46848392909">
        <ele>0</ele>
        <time>2019-07-08T19:03:41Z</time>
      </trkpt>
      <trkpt lat="51.228822308272" lon="4.468515193577">
        <ele>0</ele>
        <time>2019-07-08T19:03:43Z</time>
      </trkpt>
      <trkpt lat="51.228723318033" lon="4.468563221864">
        <ele>0</ele>
        <time>2019-07-08T19:03:51Z</time>
      </trkpt>
      <trkpt lat="51.228673697185" lon="4.468582751691">
        <ele>0</ele>
        <time>2019-07-08T19:03:56Z</time>
      </trkpt>
      <trkpt lat="51.228656179014" lon="4.468627930132">
        <ele>0</ele>
        <time>2019-07-08T19:03:59Z</time>
      </trkpt>
      <trkpt lat="51.22862969221" lon="4.468781821816">
        <ele>0</ele>
        <time>2019-07-08T19:04:07Z</time>
      </trkpt>
      <trkpt lat="51.228599014456" lon="4.468881063512">
        <ele>0</ele>
        <time>2019-07-08T19:04:13Z</time>
      </trkpt>
      <trkpt lat="51.228576634783" lon="4.468931774007">
        <ele>0</ele>
        <time>2019-07-08T19:04:16Z</time>
      </trkpt>
      <trkpt lat="51.228552159635" lon="4.469016347378">
        <ele>0</ele>
        <time>2019-07-08T19:04:24Z</time>
      </trkpt>
      <trkpt lat="51.228430538266" lon="4.468950633282">
        <ele>2.4</ele>
        <time>2019-07-08T19:04:45Z</time>
      </trkpt>
      <trkpt lat="51.228282010998" lon="4.468958596087">
        <ele>5.6</ele>
        <time>2019-07-08T19:04:56Z</time>
      </trkpt>
      <trkpt lat="51.228204646061" lon="4.468781318902">
        <ele>6</ele>
        <time>2019-07-08T19:05:07Z</time>
      </trkpt>
      <trkpt lat="51.22803457731" lon="4.468322493696">
        <ele>8</ele>
        <time>2019-07-08T19:05:35Z</time>
      </trkpt>
      <trkpt lat="51.227913123579" lon="4.467850676545">
        <ele>6.6</ele>
        <time>2019-07-08T19:06:01Z</time>
      </trkpt>
      <trkpt lat="51.227844811094" lon="4.467218178371">
        <ele>9.8</ele>
        <time>2019-07-08T19:06:34Z</time>
      </trkpt>
      <trkpt lat="51.227910357552" lon="4.467118098485">
        <ele>6.6</ele>
        <time>2019-07-08T19:06:41Z</time>
      </trkpt>
      <trkpt lat="51.227924187687" lon="4.467079290288">
        <ele>7</ele>
        <time>2019-07-08T19:06:43Z</time>
      </trkpt>
      <trkpt lat="51.227969952861" lon="4.467061688298">
        <ele>6.2</ele>
        <time>2019-07-08T19:06:47Z</time>
      </trkpt>
      <trkpt lat="51.228200203654" lon="4.46724173151">
        <ele>4</ele>
        <time>2019-07-08T19:07:09Z</time>
      </trkpt>
      <trkpt lat="51.228325932154" lon="4.467303170837">
        <ele>3.8</ele>
        <time>2019-07-08T19:07:21Z</time>
      </trkpt>
      <trkpt lat="51.228412433362" lon="4.46736997458">
        <ele>5.2</ele>
        <time>2019-07-08T19:07:30Z</time>
      </trkpt>
      <trkpt lat="51.228658525946" lon="4.467523698626">
        <ele>4.8</ele>
        <time>2019-07-08T19:07:52Z</time>
      </trkpt>
      <trkpt lat="51.228703117654" lon="4.467535684743">
        <ele>4.6</ele>
        <time>2019-07-08T19:07:56Z</time>
      </trkpt>
      <trkpt lat="51.228829768163" lon="4.467600812106">
        <ele>2</ele>
        <time>2019-07-08T19:08:08Z</time>
      </trkpt>
      <trkpt lat="51.228889866386" lon="4.467630232575">
        <ele>1.8</ele>
        <time>2019-07-08T19:08:14Z</time>
      </trkpt>
      <trkpt lat="51.22903789074" lon="4.46766585565">
        <ele>5.8</ele>
        <time>2019-07-08T19:08:28Z</time>
      </trkpt>
      <trkpt lat="51.229159344471" lon="4.467643392158">
        <ele>6.8</ele>
        <time>2019-07-08T19:08:39Z</time>
      </trkpt>
      <trkpt lat="51.22943184004" lon="4.467769539753">
        <ele>2.8</ele>
        <time>2019-07-08T19:09:05Z</time>
      </trkpt>
      <trkpt lat="51.229514234117" lon="4.467787560838">
        <ele>2</ele>
        <time>2019-07-08T19:09:12Z</time>
      </trkpt>
      <trkpt lat="51.229560166929" lon="4.467768282468">
        <ele>2.8</ele>
        <time>2019-07-08T19:09:17Z</time>
      </trkpt>
      <trkpt lat="51.22958103786" lon="4.467758308007">
        <ele>2.6</ele>
        <time>2019-07-08T19:09:19Z</time>
      </trkpt>
      <trkpt lat="51.229791004455" lon="4.467689073513">
        <ele>0</ele>
        <time>2019-07-08T19:09:40Z</time>
      </trkpt>
      <trkpt lat="51.229768876239" lon="4.46757952208">
        <ele>0.4</ele>
        <time>2019-07-08T19:09:56Z</time>
      </trkpt>
      <trkpt lat="51.229692768587" lon="4.467609948377">
        <ele>1</ele>
        <time>2019-07-08T19:10:04Z</time>
      </trkpt>
      <trkpt lat="51.22962546193" lon="4.467630567851">
        <ele>1.8</ele>
        <time>2019-07-08T19:10:10Z</time>
      </trkpt>
      <trkpt lat="51.229525465863" lon="4.467654623904">
        <ele>0.4</ele>
        <time>2019-07-08T19:10:20Z</time>
      </trkpt>
      <trkpt lat="51.229186082732" lon="4.467593855129">
        <ele>1.2</ele>
        <time>2019-07-08T19:10:52Z</time>
      </trkpt>
      <trkpt lat="51.229098072782" lon="4.4677622475">
        <ele>2.4</ele>
        <time>2019-07-08T19:11:05Z</time>
      </trkpt>
      <trkpt lat="51.22912003336" lon="4.468110850721">
        <ele>0.2</ele>
        <time>2019-07-08T19:11:24Z</time>
      </trkpt>
      <trkpt lat="51.229102012275" lon="4.468222162353">
        <ele>0</ele>
        <time>2019-07-08T19:11:31Z</time>
      </trkpt>
      <trkpt lat="51.228978798345" lon="4.468386196136">
        <ele>0</ele>
        <time>2019-07-08T19:11:47Z</time>
      </trkpt>
      <trkpt lat="51.228975445585" lon="4.468585685356">
        <ele>0.4</ele>
        <time>2019-07-08T19:12:04Z</time>
      </trkpt>
      <trkpt lat="51.228879556649" lon="4.468548721177">
        <ele>0.8</ele>
        <time>2019-07-08T19:12:13Z</time>
      </trkpt>
      <trkpt lat="51.228743183136" lon="4.468561294027">
        <ele>0</ele>
        <time>2019-07-08T19:12:24Z</time>
      </trkpt>
      <trkpt lat="51.228541095527" lon="4.468422405944">
        <ele>0</ele>
        <time>2019-07-08T19:12:51Z</time>
      </trkpt>
    </trkseg>
  </trk>
</gpx>